sensor_id;sensor_type;location;lat;lon;timestamp;P1;durP1;ratioP1;P2;durP2;ratioP2
4466;SDS011;2246;42.664;23.278;2024-01-15T00:02:01;74.22;;;25.55;;
4466;SDS011;2246;42.664;23.278;2024-01-15T00:04:28;63.60;;;23.92;;
4466;SDS011;2246;42.664;23.278;2024-01-15T00:06:54;70.80;;;24.00;;
4466;SDS011;2246;42.664;23.278;2024-01-15T00:09:20;78.80;;;27.08;;
4466;SDS011;2246;42.664;23.278;2024-01-15T00:11:46;73.53;;;25.55;;
4466;SDS011;2246;42.664;23.278;2024-01-15T00:14:12;72.38;;;23.60;;
4466;SDS011;2246;42.664;23.278;2024-01-15T00:16:40;69.93;;;24.92;;
4466;SDS011;2246;42.664;23.278;2024-01-15T00:19:06;58.72;;;22.52;;
4466;SDS011;2246;42.664;23.278;2024-01-15T00:21:32;63.28;;;22.95;;
4466;SDS011;2246;42.664;23.278;2024-01-15T00:23:58;67.28;;;23.95;;
4466;SDS011;2246;42.664;23.278;2024-01-15T00:26:24;71.28;;;23.90;;
4466;SDS011;2246;42.664;23.278;2024-01-15T00:28:50;70.57;;;22.98;;
4466;SDS011;2246;42.664;23.278;2024-01-15T00:31:16;73.45;;;25.40;;
4466;SDS011;2246;42.664;23.278;2024-01-15T00:33:43;62.92;;;23.75;;
4466;SDS011;2246;42.664;23.278;2024-01-15T00:36:09;59.97;;;22.05;;
4466;SDS011;2246;42.664;23.278;2024-01-15T00:38:35;69.72;;;25.05;;
4466;SDS011;2246;42.664;23.278;2024-01-15T00:41:01;78.30;;;26.80;;
4466;SDS011;2246;42.664;23.278;2024-01-15T00:43:27;69.78;;;24.40;;
4466;SDS011;2246;42.664;23.278;2024-01-15T00:45:53;62.25;;;24.13;;
4466;SDS011;2246;42.664;23.278;2024-01-15T00:48:19;64.40;;;23.70;;
4466;SDS011;2246;42.664;23.278;2024-01-15T00:50:45;64.80;;;23.33;;
4466;SDS011;2246;42.664;23.278;2024-01-15T00:53:12;70.43;;;21.50;;
4466;SDS011;2246;42.664;23.278;2024-01-15T00:55:38;66.53;;;22.52;;
4466;SDS011;2246;42.664;23.278;2024-01-15T00:58:04;60.55;;;23.15;;
4466;SDS011;2246;42.664;23.278;2024-01-15T01:00:30;72.18;;;24.15;;
4466;SDS011;2246;42.664;23.278;2024-01-15T01:02:56;62.88;;;22.83;;
4466;SDS011;2246;42.664;23.278;2024-01-15T01:05:22;66.90;;;24.63;;
4466;SDS011;2246;42.664;23.278;2024-01-15T01:07:48;71.15;;;24.08;;
4466;SDS011;2246;42.664;23.278;2024-01-15T01:10:14;62.72;;;22.17;;
4466;SDS011;2246;42.664;23.278;2024-01-15T01:12:40;64.80;;;22.45;;
4466;SDS011;2246;42.664;23.278;2024-01-15T01:15:06;65.32;;;22.92;;
4466;SDS011;2246;42.664;23.278;2024-01-15T01:17:33;72.35;;;23.75;;
4466;SDS011;2246;42.664;23.278;2024-01-15T01:19:58;59.13;;;21.25;;
4466;SDS011;2246;42.664;23.278;2024-01-15T01:22:24;61.38;;;21.92;;
4466;SDS011;2246;42.664;23.278;2024-01-15T01:24:50;62.63;;;21.75;;
4466;SDS011;2246;42.664;23.278;2024-01-15T01:27:16;54.05;;;21.55;;
4466;SDS011;2246;42.664;23.278;2024-01-15T01:29:42;56.70;;;21.35;;
4466;SDS011;2246;42.664;23.278;2024-01-15T01:32:08;51.17;;;19.63;;
4466;SDS011;2246;42.664;23.278;2024-01-15T01:34:39;54.03;;;19.38;;
4466;SDS011;2246;42.664;23.278;2024-01-15T01:37:07;54.65;;;19.23;;
4466;SDS011;2246;42.664;23.278;2024-01-15T01:39:33;57.78;;;19.35;;
4466;SDS011;2246;42.664;23.278;2024-01-15T01:41:59;45.08;;;18.25;;
4466;SDS011;2246;42.664;23.278;2024-01-15T01:44:25;47.30;;;18.25;;
4466;SDS011;2246;42.664;23.278;2024-01-15T01:46:51;43.78;;;17.02;;
4466;SDS011;2246;42.664;23.278;2024-01-15T01:49:17;42.22;;;17.25;;
4466;SDS011;2246;42.664;23.278;2024-01-15T01:51:43;53.67;;;17.92;;
4466;SDS011;2246;42.664;23.278;2024-01-15T01:54:09;45.53;;;17.08;;
4466;SDS011;2246;42.664;23.278;2024-01-15T01:56:38;52.15;;;16.85;;
4466;SDS011;2246;42.664;23.278;2024-01-15T01:59:04;44.05;;;15.82;;
4466;SDS011;2246;42.664;23.278;2024-01-15T02:01:31;42.05;;;15.80;;
4466;SDS011;2246;42.664;23.278;2024-01-15T02:03:57;41.95;;;15.77;;
4466;SDS011;2246;42.664;23.278;2024-01-15T02:06:24;44.38;;;14.18;;
4466;SDS011;2246;42.664;23.278;2024-01-15T02:08:50;34.28;;;14.68;;
4466;SDS011;2246;42.664;23.278;2024-01-15T02:11:16;32.97;;;13.73;;
4466;SDS011;2246;42.664;23.278;2024-01-15T02:13:42;42.67;;;14.73;;
4466;SDS011;2246;42.664;23.278;2024-01-15T02:16:08;38.83;;;14.15;;
4466;SDS011;2246;42.664;23.278;2024-01-15T02:18:43;42.78;;;14.57;;
4466;SDS011;2246;42.664;23.278;2024-01-15T02:21:09;39.78;;;13.82;;
4466;SDS011;2246;42.664;23.278;2024-01-15T02:23:36;42.80;;;14.10;;
4466;SDS011;2246;42.664;23.278;2024-01-15T02:26:02;32.85;;;13.05;;
4466;SDS011;2246;42.664;23.278;2024-01-15T02:28:28;38.45;;;13.27;;
4466;SDS011;2246;42.664;23.278;2024-01-15T02:30:54;36.83;;;13.70;;
4466;SDS011;2246;42.664;23.278;2024-01-15T02:33:20;41.30;;;14.85;;
4466;SDS011;2246;42.664;23.278;2024-01-15T02:35:46;37.75;;;14.68;;
4466;SDS011;2246;42.664;23.278;2024-01-15T02:38:15;43.15;;;13.50;;
4466;SDS011;2246;42.664;23.278;2024-01-15T02:40:41;41.35;;;13.75;;
4466;SDS011;2246;42.664;23.278;2024-01-15T02:43:07;35.53;;;13.85;;
4466;SDS011;2246;42.664;23.278;2024-01-15T02:45:33;37.28;;;14.43;;
4466;SDS011;2246;42.664;23.278;2024-01-15T02:47:59;34.45;;;13.77;;
4466;SDS011;2246;42.664;23.278;2024-01-15T02:50:26;36.45;;;14.50;;
4466;SDS011;2246;42.664;23.278;2024-01-15T02:52:53;45.08;;;15.38;;
4466;SDS011;2246;42.664;23.278;2024-01-15T02:55:19;45.17;;;16.35;;
4466;SDS011;2246;42.664;23.278;2024-01-15T02:57:45;39.50;;;15.30;;
4466;SDS011;2246;42.664;23.278;2024-01-15T03:00:11;39.40;;;15.00;;
4466;SDS011;2246;42.664;23.278;2024-01-15T03:02:37;37.22;;;14.18;;
4466;SDS011;2246;42.664;23.278;2024-01-15T03:05:11;39.90;;;14.02;;
4466;SDS011;2246;42.664;23.278;2024-01-15T03:07:37;47.90;;;16.30;;
4466;SDS011;2246;42.664;23.278;2024-01-15T03:10:03;47.70;;;16.83;;
4466;SDS011;2246;42.664;23.278;2024-01-15T03:12:30;55.42;;;15.80;;
4466;SDS011;2246;42.664;23.278;2024-01-15T03:14:57;46.70;;;16.65;;
4466;SDS011;2246;42.664;23.278;2024-01-15T03:17:23;50.60;;;18.13;;
4466;SDS011;2246;42.664;23.278;2024-01-15T03:19:49;53.15;;;18.48;;
4466;SDS011;2246;42.664;23.278;2024-01-15T03:22:15;47.30;;;18.05;;
4466;SDS011;2246;42.664;23.278;2024-01-15T03:24:42;57.60;;;17.27;;
4466;SDS011;2246;42.664;23.278;2024-01-15T03:27:08;51.15;;;16.50;;
4466;SDS011;2246;42.664;23.278;2024-01-15T03:29:34;47.55;;;18.58;;
4466;SDS011;2246;42.664;23.278;2024-01-15T03:32:00;45.30;;;17.40;;
4466;SDS011;2246;42.664;23.278;2024-01-15T03:34:26;49.85;;;18.05;;
4466;SDS011;2246;42.664;23.278;2024-01-15T03:36:52;45.25;;;18.38;;
4466;SDS011;2246;42.664;23.278;2024-01-15T03:39:18;53.80;;;18.73;;
4466;SDS011;2246;42.664;23.278;2024-01-15T03:41:44;57.40;;;18.45;;
4466;SDS011;2246;42.664;23.278;2024-01-15T03:44:10;53.38;;;18.20;;
4466;SDS011;2246;42.664;23.278;2024-01-15T03:46:36;57.63;;;19.70;;
4466;SDS011;2246;42.664;23.278;2024-01-15T03:49:02;51.97;;;18.13;;
4466;SDS011;2246;42.664;23.278;2024-01-15T03:51:28;48.80;;;18.23;;
4466;SDS011;2246;42.664;23.278;2024-01-15T03:53:54;45.70;;;18.30;;
4466;SDS011;2246;42.664;23.278;2024-01-15T03:56:20;50.33;;;17.95;;
4466;SDS011;2246;42.664;23.278;2024-01-15T03:58:46;57.53;;;20.15;;
4466;SDS011;2246;42.664;23.278;2024-01-15T04:01:12;55.05;;;18.92;;
4466;SDS011;2246;42.664;23.278;2024-01-15T04:03:39;53.55;;;19.10;;
4466;SDS011;2246;42.664;23.278;2024-01-15T04:06:05;49.15;;;19.00;;
4466;SDS011;2246;42.664;23.278;2024-01-15T04:08:31;51.83;;;18.75;;
4466;SDS011;2246;42.664;23.278;2024-01-15T04:10:57;51.55;;;18.13;;
4466;SDS011;2246;42.664;23.278;2024-01-15T04:13:23;49.30;;;18.75;;
4466;SDS011;2246;42.664;23.278;2024-01-15T04:15:49;55.45;;;19.23;;
4466;SDS011;2246;42.664;23.278;2024-01-15T04:18:18;49.88;;;17.85;;
4466;SDS011;2246;42.664;23.278;2024-01-15T04:20:44;46.90;;;18.05;;
4466;SDS011;2246;42.664;23.278;2024-01-15T04:23:10;48.67;;;18.30;;
4466;SDS011;2246;42.664;23.278;2024-01-15T04:25:36;55.42;;;20.00;;
4466;SDS011;2246;42.664;23.278;2024-01-15T04:28:02;53.97;;;19.48;;
4466;SDS011;2246;42.664;23.278;2024-01-15T04:30:28;57.03;;;22.30;;
4466;SDS011;2246;42.664;23.278;2024-01-15T04:32:54;74.03;;;23.40;;
4466;SDS011;2246;42.664;23.278;2024-01-15T04:35:20;54.17;;;22.63;;
4466;SDS011;2246;42.664;23.278;2024-01-15T04:37:46;74.80;;;24.65;;
4466;SDS011;2246;42.664;23.278;2024-01-15T04:40:12;79.05;;;26.52;;
4466;SDS011;2246;42.664;23.278;2024-01-15T04:42:38;97.13;;;31.67;;
4466;SDS011;2246;42.664;23.278;2024-01-15T04:45:04;96.15;;;33.50;;
4466;SDS011;2246;42.664;23.278;2024-01-15T04:47:31;94.45;;;32.42;;
4466;SDS011;2246;42.664;23.278;2024-01-15T04:49:56;85.68;;;28.25;;
4466;SDS011;2246;42.664;23.278;2024-01-15T04:52:22;78.30;;;27.75;;
4466;SDS011;2246;42.664;23.278;2024-01-15T04:54:49;81.38;;;28.88;;
4466;SDS011;2246;42.664;23.278;2024-01-15T04:57:15;78.13;;;31.65;;
4466;SDS011;2246;42.664;23.278;2024-01-15T04:59:41;97.25;;;33.60;;
4466;SDS011;2246;42.664;23.278;2024-01-15T05:02:07;88.97;;;31.55;;
4466;SDS011;2246;42.664;23.278;2024-01-15T05:04:33;82.60;;;31.02;;
4466;SDS011;2246;42.664;23.278;2024-01-15T05:06:59;86.20;;;34.40;;
4466;SDS011;2246;42.664;23.278;2024-01-15T05:09:25;88.78;;;31.95;;
4466;SDS011;2246;42.664;23.278;2024-01-15T05:11:51;85.38;;;31.30;;
4466;SDS011;2246;42.664;23.278;2024-01-15T05:14:17;90.88;;;33.28;;
4466;SDS011;2246;42.664;23.278;2024-01-15T05:16:46;94.43;;;31.33;;
4466;SDS011;2246;42.664;23.278;2024-01-15T05:19:13;104.40;;;35.67;;
4466;SDS011;2246;42.664;23.278;2024-01-15T05:21:39;119.07;;;41.60;;
4466;SDS011;2246;42.664;23.278;2024-01-15T05:24:05;118.45;;;41.03;;
4466;SDS011;2246;42.664;23.278;2024-01-15T05:26:31;129.60;;;43.15;;
4466;SDS011;2246;42.664;23.278;2024-01-15T05:28:57;111.78;;;42.92;;
4466;SDS011;2246;42.664;23.278;2024-01-15T05:31:23;137.05;;;45.70;;
4466;SDS011;2246;42.664;23.278;2024-01-15T05:33:49;114.97;;;42.15;;
4466;SDS011;2246;42.664;23.278;2024-01-15T05:36:15;117.97;;;39.85;;
4466;SDS011;2246;42.664;23.278;2024-01-15T05:38:41;104.78;;;37.17;;
4466;SDS011;2246;42.664;23.278;2024-01-15T05:41:07;98.68;;;36.97;;
4466;SDS011;2246;42.664;23.278;2024-01-15T05:43:33;99.93;;;39.22;;
4466;SDS011;2246;42.664;23.278;2024-01-15T05:45:59;102.53;;;38.38;;
4466;SDS011;2246;42.664;23.278;2024-01-15T05:48:25;105.03;;;40.00;;
4466;SDS011;2246;42.664;23.278;2024-01-15T05:50:51;101.18;;;37.15;;
4466;SDS011;2246;42.664;23.278;2024-01-15T05:53:17;106.25;;;41.00;;
4466;SDS011;2246;42.664;23.278;2024-01-15T05:55:43;103.68;;;39.50;;
4466;SDS011;2246;42.664;23.278;2024-01-15T05:58:09;121.68;;;45.10;;
4466;SDS011;2246;42.664;23.278;2024-01-15T06:00:35;124.65;;;43.70;;
4466;SDS011;2246;42.664;23.278;2024-01-15T06:03:03;118.88;;;44.45;;
4466;SDS011;2246;42.664;23.278;2024-01-15T06:05:29;113.43;;;42.90;;
4466;SDS011;2246;42.664;23.278;2024-01-15T06:07:55;120.60;;;42.83;;
4466;SDS011;2246;42.664;23.278;2024-01-15T06:10:21;120.60;;;45.08;;
4466;SDS011;2246;42.664;23.278;2024-01-15T06:12:47;129.70;;;45.28;;
4466;SDS011;2246;42.664;23.278;2024-01-15T06:15:13;118.28;;;43.20;;
4466;SDS011;2246;42.664;23.278;2024-01-15T06:17:39;126.38;;;43.58;;
4466;SDS011;2246;42.664;23.278;2024-01-15T06:20:05;118.93;;;41.05;;
4466;SDS011;2246;42.664;23.278;2024-01-15T06:22:31;110.38;;;37.85;;
4466;SDS011;2246;42.664;23.278;2024-01-15T06:24:58;127.53;;;42.83;;
4466;SDS011;2246;42.664;23.278;2024-01-15T06:27:24;111.47;;;40.33;;
4466;SDS011;2246;42.664;23.278;2024-01-15T06:29:50;105.35;;;41.10;;
4466;SDS011;2246;42.664;23.278;2024-01-15T06:32:16;112.03;;;40.95;;
4466;SDS011;2246;42.664;23.278;2024-01-15T06:34:42;111.10;;;41.58;;
4466;SDS011;2246;42.664;23.278;2024-01-15T06:37:08;116.53;;;41.80;;
4466;SDS011;2246;42.664;23.278;2024-01-15T06:39:34;108.35;;;40.97;;
4466;SDS011;2246;42.664;23.278;2024-01-15T06:41:59;106.25;;;39.22;;
4466;SDS011;2246;42.664;23.278;2024-01-15T06:44:25;113.88;;;41.80;;
4466;SDS011;2246;42.664;23.278;2024-01-15T06:46:51;110.95;;;40.33;;
4466;SDS011;2246;42.664;23.278;2024-01-15T06:49:22;109.53;;;40.22;;
4466;SDS011;2246;42.664;23.278;2024-01-15T06:51:48;107.43;;;38.30;;
4466;SDS011;2246;42.664;23.278;2024-01-15T06:54:14;107.70;;;37.58;;
4466;SDS011;2246;42.664;23.278;2024-01-15T06:56:40;102.78;;;38.20;;
4466;SDS011;2246;42.664;23.278;2024-01-15T06:59:06;105.70;;;38.65;;
4466;SDS011;2246;42.664;23.278;2024-01-15T07:01:32;102.90;;;38.28;;
4466;SDS011;2246;42.664;23.278;2024-01-15T07:03:58;92.00;;;36.80;;
4466;SDS011;2246;42.664;23.278;2024-01-15T07:06:24;99.05;;;38.10;;
4466;SDS011;2246;42.664;23.278;2024-01-15T07:08:50;91.53;;;35.95;;
4466;SDS011;2246;42.664;23.278;2024-01-15T07:11:16;95.15;;;35.70;;
4466;SDS011;2246;42.664;23.278;2024-01-15T07:13:42;94.53;;;36.75;;
4466;SDS011;2246;42.664;23.278;2024-01-15T07:16:08;92.10;;;33.75;;
4466;SDS011;2246;42.664;23.278;2024-01-15T07:18:34;93.68;;;36.25;;
4466;SDS011;2246;42.664;23.278;2024-01-15T07:21:00;96.80;;;34.67;;
4466;SDS011;2246;42.664;23.278;2024-01-15T07:23:27;94.18;;;36.33;;
4466;SDS011;2246;42.664;23.278;2024-01-15T07:25:53;92.93;;;33.70;;
4466;SDS011;2246;42.664;23.278;2024-01-15T07:28:19;94.13;;;34.47;;
4466;SDS011;2246;42.664;23.278;2024-01-15T07:30:45;80.35;;;32.42;;
4466;SDS011;2246;42.664;23.278;2024-01-15T07:33:11;82.93;;;33.13;;
4466;SDS011;2246;42.664;23.278;2024-01-15T07:35:37;93.35;;;34.95;;
4466;SDS011;2246;42.664;23.278;2024-01-15T07:38:03;84.93;;;33.35;;
4466;SDS011;2246;42.664;23.278;2024-01-15T07:40:29;87.20;;;33.30;;
4466;SDS011;2246;42.664;23.278;2024-01-15T07:42:55;106.25;;;37.95;;
4466;SDS011;2246;42.664;23.278;2024-01-15T07:45:21;87.55;;;34.42;;
4466;SDS011;2246;42.664;23.278;2024-01-15T07:47:47;87.80;;;32.53;;
4466;SDS011;2246;42.664;23.278;2024-01-15T07:50:14;93.70;;;35.10;;
4466;SDS011;2246;42.664;23.278;2024-01-15T07:52:40;88.55;;;34.53;;
4466;SDS011;2246;42.664;23.278;2024-01-15T07:55:09;85.97;;;36.22;;
4466;SDS011;2246;42.664;23.278;2024-01-15T07:57:35;90.10;;;33.53;;
4466;SDS011;2246;42.664;23.278;2024-01-15T08:00:02;87.95;;;32.08;;
4466;SDS011;2246;42.664;23.278;2024-01-15T08:02:30;78.93;;;30.20;;
4466;SDS011;2246;42.664;23.278;2024-01-15T08:04:57;84.30;;;29.85;;
4466;SDS011;2246;42.664;23.278;2024-01-15T08:07:24;84.63;;;28.55;;
4466;SDS011;2246;42.664;23.278;2024-01-15T08:09:50;55.00;;;22.42;;
4466;SDS011;2246;42.664;23.278;2024-01-15T08:12:16;54.08;;;21.95;;
4466;SDS011;2246;42.664;23.278;2024-01-15T08:14:42;49.65;;;17.98;;
4466;SDS011;2246;42.664;23.278;2024-01-15T08:17:08;56.03;;;21.80;;
4466;SDS011;2246;42.664;23.278;2024-01-15T08:19:34;63.17;;;23.08;;
4466;SDS011;2246;42.664;23.278;2024-01-15T08:22:00;66.78;;;24.80;;
4466;SDS011;2246;42.664;23.278;2024-01-15T08:24:26;62.08;;;23.88;;
4466;SDS011;2246;42.664;23.278;2024-01-15T08:26:53;68.85;;;25.55;;
4466;SDS011;2246;42.664;23.278;2024-01-15T08:29:21;58.78;;;25.50;;
4466;SDS011;2246;42.664;23.278;2024-01-15T08:31:47;70.63;;;26.25;;
4466;SDS011;2246;42.664;23.278;2024-01-15T08:34:13;70.32;;;25.70;;
4466;SDS011;2246;42.664;23.278;2024-01-15T08:36:39;69.32;;;25.58;;
4466;SDS011;2246;42.664;23.278;2024-01-15T08:39:05;62.08;;;27.17;;
4466;SDS011;2246;42.664;23.278;2024-01-15T08:41:34;64.32;;;25.90;;
4466;SDS011;2246;42.664;23.278;2024-01-15T08:44:01;73.45;;;26.00;;
4466;SDS011;2246;42.664;23.278;2024-01-15T08:46:28;72.17;;;27.30;;
4466;SDS011;2246;42.664;23.278;2024-01-15T08:48:54;74.40;;;25.38;;
4466;SDS011;2246;42.664;23.278;2024-01-15T08:51:20;65.78;;;25.25;;
4466;SDS011;2246;42.664;23.278;2024-01-15T08:53:46;68.00;;;24.92;;
4466;SDS011;2246;42.664;23.278;2024-01-15T08:56:12;65.57;;;24.75;;
4466;SDS011;2246;42.664;23.278;2024-01-15T08:58:38;62.65;;;25.42;;
4466;SDS011;2246;42.664;23.278;2024-01-15T09:01:04;68.18;;;24.38;;
4466;SDS011;2246;42.664;23.278;2024-01-15T09:03:30;62.58;;;24.52;;
4466;SDS011;2246;42.664;23.278;2024-01-15T09:05:57;66.35;;;23.70;;
4466;SDS011;2246;42.664;23.278;2024-01-15T09:08:23;57.72;;;23.10;;
4466;SDS011;2246;42.664;23.278;2024-01-15T09:10:49;65.53;;;23.20;;
4466;SDS011;2246;42.664;23.278;2024-01-15T09:13:15;56.20;;;22.55;;
4466;SDS011;2246;42.664;23.278;2024-01-15T09:15:41;65.47;;;24.08;;
4466;SDS011;2246;42.664;23.278;2024-01-15T09:18:08;62.15;;;23.10;;
4466;SDS011;2246;42.664;23.278;2024-01-15T09:20:34;59.20;;;23.75;;
4466;SDS011;2246;42.664;23.278;2024-01-15T09:23:01;60.92;;;23.38;;
4466;SDS011;2246;42.664;23.278;2024-01-15T09:25:27;60.92;;;24.20;;
4466;SDS011;2246;42.664;23.278;2024-01-15T09:27:54;57.55;;;24.00;;
4466;SDS011;2246;42.664;23.278;2024-01-15T09:30:20;57.17;;;23.30;;
4466;SDS011;2246;42.664;23.278;2024-01-15T09:32:46;53.03;;;21.60;;
4466;SDS011;2246;42.664;23.278;2024-01-15T09:35:12;63.65;;;22.02;;
4466;SDS011;2246;42.664;23.278;2024-01-15T09:37:39;56.63;;;22.55;;
4466;SDS011;2246;42.664;23.278;2024-01-15T09:40:05;59.03;;;23.38;;
4466;SDS011;2246;42.664;23.278;2024-01-15T09:42:32;58.88;;;22.63;;
4466;SDS011;2246;42.664;23.278;2024-01-15T09:44:58;60.58;;;22.02;;
4466;SDS011;2246;42.664;23.278;2024-01-15T09:47:25;62.00;;;23.08;;
4466;SDS011;2246;42.664;23.278;2024-01-15T09:49:51;54.80;;;23.73;;
4466;SDS011;2246;42.664;23.278;2024-01-15T09:52:17;68.32;;;26.00;;
4466;SDS011;2246;42.664;23.278;2024-01-15T09:54:45;71.60;;;26.70;;
4466;SDS011;2246;42.664;23.278;2024-01-15T09:57:11;75.82;;;27.52;;
4466;SDS011;2246;42.664;23.278;2024-01-15T09:59:37;66.18;;;27.00;;
4466;SDS011;2246;42.664;23.278;2024-01-15T10:02:04;77.75;;;25.55;;
4466;SDS011;2246;42.664;23.278;2024-01-15T10:04:31;54.90;;;22.55;;
4466;SDS011;2246;42.664;23.278;2024-01-15T10:06:57;65.75;;;24.20;;
4466;SDS011;2246;42.664;23.278;2024-01-15T10:09:23;63.90;;;21.08;;
4466;SDS011;2246;42.664;23.278;2024-01-15T10:11:49;49.63;;;20.10;;
4466;SDS011;2246;42.664;23.278;2024-01-15T10:14:15;61.00;;;23.40;;
4466;SDS011;2246;42.664;23.278;2024-01-15T10:16:41;54.22;;;23.02;;
4466;SDS011;2246;42.664;23.278;2024-01-15T10:19:08;54.28;;;22.45;;
4466;SDS011;2246;42.664;23.278;2024-01-15T10:21:34;56.92;;;22.10;;
4466;SDS011;2246;42.664;23.278;2024-01-15T10:24:01;69.72;;;23.98;;
4466;SDS011;2246;42.664;23.278;2024-01-15T10:26:27;62.22;;;25.10;;
4466;SDS011;2246;42.664;23.278;2024-01-15T10:28:53;64.72;;;25.80;;
4466;SDS011;2246;42.664;23.278;2024-01-15T10:31:20;74.43;;;28.10;;
4466;SDS011;2246;42.664;23.278;2024-01-15T10:33:47;80.68;;;32.25;;
4466;SDS011;2246;42.664;23.278;2024-01-15T10:36:14;74.63;;;27.38;;
4466;SDS011;2246;42.664;23.278;2024-01-15T10:38:41;80.00;;;32.13;;
4466;SDS011;2246;42.664;23.278;2024-01-15T10:41:07;86.85;;;31.83;;
4466;SDS011;2246;42.664;23.278;2024-01-15T10:43:33;79.72;;;32.35;;
4466;SDS011;2246;42.664;23.278;2024-01-15T10:45:59;81.65;;;32.15;;
4466;SDS011;2246;42.664;23.278;2024-01-15T10:48:26;87.03;;;33.72;;
4466;SDS011;2246;42.664;23.278;2024-01-15T10:50:53;78.13;;;31.38;;
4466;SDS011;2246;42.664;23.278;2024-01-15T10:53:19;87.43;;;32.10;;
4466;SDS011;2246;42.664;23.278;2024-01-15T10:55:46;76.28;;;33.63;;
4466;SDS011;2246;42.664;23.278;2024-01-15T10:58:16;74.75;;;30.88;;
4466;SDS011;2246;42.664;23.278;2024-01-15T11:00:42;75.30;;;28.67;;
4466;SDS011;2246;42.664;23.278;2024-01-15T11:03:08;78.55;;;29.05;;
4466;SDS011;2246;42.664;23.278;2024-01-15T11:05:38;60.58;;;24.67;;
4466;SDS011;2246;42.664;23.278;2024-01-15T11:08:07;57.97;;;21.98;;
4466;SDS011;2246;42.664;23.278;2024-01-15T11:10:41;49.13;;;19.92;;
4466;SDS011;2246;42.664;23.278;2024-01-15T11:13:13;53.08;;;21.83;;
4466;SDS011;2246;42.664;23.278;2024-01-15T11:18:26;60.15;;;24.45;;
4466;SDS011;2246;42.664;23.278;2024-01-15T11:23:53;54.65;;;21.67;;
4466;SDS011;2246;42.664;23.278;2024-01-15T11:28:57;46.42;;;20.45;;
4466;SDS011;2246;42.664;23.278;2024-01-15T11:31:28;49.33;;;19.98;;
4466;SDS011;2246;42.664;23.278;2024-01-15T11:33:54;44.70;;;18.13;;
4466;SDS011;2246;42.664;23.278;2024-01-15T11:36:21;39.35;;;17.67;;
4466;SDS011;2246;42.664;23.278;2024-01-15T11:38:47;55.30;;;18.47;;
4466;SDS011;2246;42.664;23.278;2024-01-15T11:41:14;46.95;;;18.30;;
4466;SDS011;2246;42.664;23.278;2024-01-15T11:43:41;47.83;;;19.17;;
4466;SDS011;2246;42.664;23.278;2024-01-15T11:46:10;47.95;;;18.65;;
4466;SDS011;2246;42.664;23.278;2024-01-15T11:48:43;42.83;;;17.58;;
4466;SDS011;2246;42.664;23.278;2024-01-15T11:51:13;42.97;;;18.38;;
4466;SDS011;2246;42.664;23.278;2024-01-15T11:53:47;44.17;;;17.50;;
4466;SDS011;2246;42.664;23.278;2024-01-15T11:56:14;42.35;;;16.73;;
4466;SDS011;2246;42.664;23.278;2024-01-15T11:58:43;48.00;;;18.45;;
4466;SDS011;2246;42.664;23.278;2024-01-15T12:01:13;50.08;;;19.73;;
4466;SDS011;2246;42.664;23.278;2024-01-15T12:03:39;51.78;;;20.10;;
4466;SDS011;2246;42.664;23.278;2024-01-15T12:06:05;46.58;;;19.48;;
4466;SDS011;2246;42.664;23.278;2024-01-15T12:08:32;49.90;;;18.65;;
4466;SDS011;2246;42.664;23.278;2024-01-15T12:10:58;41.10;;;17.80;;
4466;SDS011;2246;42.664;23.278;2024-01-15T12:13:24;45.17;;;19.05;;
4466;SDS011;2246;42.664;23.278;2024-01-15T12:15:50;49.13;;;20.70;;
4466;SDS011;2246;42.664;23.278;2024-01-15T12:18:16;56.10;;;22.25;;
4466;SDS011;2246;42.664;23.278;2024-01-15T12:20:43;50.95;;;21.13;;
4466;SDS011;2246;42.664;23.278;2024-01-15T12:23:11;53.45;;;22.67;;
4466;SDS011;2246;42.664;23.278;2024-01-15T12:25:41;64.45;;;25.00;;
4466;SDS011;2246;42.664;23.278;2024-01-15T12:28:07;60.50;;;23.52;;
4466;SDS011;2246;42.664;23.278;2024-01-15T12:30:35;59.92;;;24.85;;
4466;SDS011;2246;42.664;23.278;2024-01-15T12:33:02;58.65;;;25.08;;
4466;SDS011;2246;42.664;23.278;2024-01-15T12:35:29;52.67;;;22.77;;
4466;SDS011;2246;42.664;23.278;2024-01-15T12:37:55;63.20;;;22.63;;
4466;SDS011;2246;42.664;23.278;2024-01-15T12:40:22;56.60;;;22.60;;
4466;SDS011;2246;42.664;23.278;2024-01-15T12:42:48;60.35;;;23.23;;
4466;SDS011;2246;42.664;23.278;2024-01-15T12:45:14;52.70;;;21.08;;
4466;SDS011;2246;42.664;23.278;2024-01-15T12:47:40;46.10;;;19.65;;
4466;SDS011;2246;42.664;23.278;2024-01-15T12:50:07;50.08;;;20.83;;
4466;SDS011;2246;42.664;23.278;2024-01-15T12:52:33;57.30;;;21.05;;
4466;SDS011;2246;42.664;23.278;2024-01-15T12:54:59;56.40;;;21.88;;
4466;SDS011;2246;42.664;23.278;2024-01-15T12:57:25;51.42;;;22.02;;
4466;SDS011;2246;42.664;23.278;2024-01-15T12:59:54;51.35;;;20.83;;
4466;SDS011;2246;42.664;23.278;2024-01-15T13:02:20;52.28;;;19.52;;
4466;SDS011;2246;42.664;23.278;2024-01-15T13:04:46;66.53;;;27.45;;
4466;SDS011;2246;42.664;23.278;2024-01-15T13:07:12;50.53;;;20.60;;
4466;SDS011;2246;42.664;23.278;2024-01-15T13:09:38;46.70;;;20.60;;
4466;SDS011;2246;42.664;23.278;2024-01-15T13:12:04;49.25;;;20.73;;
4466;SDS011;2246;42.664;23.278;2024-01-15T13:14:33;64.00;;;24.00;;
4466;SDS011;2246;42.664;23.278;2024-01-15T13:17:00;64.95;;;22.25;;
4466;SDS011;2246;42.664;23.278;2024-01-15T13:19:26;62.28;;;23.10;;
4466;SDS011;2246;42.664;23.278;2024-01-15T13:21:52;51.22;;;20.98;;
4466;SDS011;2246;42.664;23.278;2024-01-15T13:24:19;49.78;;;20.80;;
4466;SDS011;2246;42.664;23.278;2024-01-15T13:26:45;91.05;;;30.50;;
4466;SDS011;2246;42.664;23.278;2024-01-15T13:29:11;61.72;;;24.48;;
4466;SDS011;2246;42.664;23.278;2024-01-15T13:31:37;55.53;;;23.88;;
4466;SDS011;2246;42.664;23.278;2024-01-15T13:34:03;56.33;;;21.15;;
4466;SDS011;2246;42.664;23.278;2024-01-15T13:36:29;76.15;;;27.25;;
4466;SDS011;2246;42.664;23.278;2024-01-15T13:38:55;72.90;;;28.23;;
4466;SDS011;2246;42.664;23.278;2024-01-15T13:41:21;50.17;;;23.00;;
4466;SDS011;2246;42.664;23.278;2024-01-15T13:43:52;49.17;;;20.33;;
4466;SDS011;2246;42.664;23.278;2024-01-15T13:46:18;56.00;;;21.77;;
4466;SDS011;2246;42.664;23.278;2024-01-15T13:48:45;53.13;;;21.77;;
4466;SDS011;2246;42.664;23.278;2024-01-15T13:51:11;60.67;;;21.02;;
4466;SDS011;2246;42.664;23.278;2024-01-15T13:53:40;47.17;;;19.00;;
4466;SDS011;2246;42.664;23.278;2024-01-15T13:56:06;45.28;;;18.88;;
4466;SDS011;2246;42.664;23.278;2024-01-15T13:58:35;43.65;;;19.35;;
4466;SDS011;2246;42.664;23.278;2024-01-15T14:01:01;51.50;;;19.88;;
4466;SDS011;2246;42.664;23.278;2024-01-15T14:03:31;49.13;;;20.10;;
4466;SDS011;2246;42.664;23.278;2024-01-15T14:05:57;56.15;;;19.85;;
4466;SDS011;2246;42.664;23.278;2024-01-15T14:08:23;51.38;;;21.02;;
4466;SDS011;2246;42.664;23.278;2024-01-15T14:10:49;55.60;;;20.58;;
4466;SDS011;2246;42.664;23.278;2024-01-15T14:13:15;59.83;;;22.20;;
4466;SDS011;2246;42.664;23.278;2024-01-15T14:15:41;56.28;;;21.20;;
4466;SDS011;2246;42.664;23.278;2024-01-15T14:18:07;52.28;;;21.63;;
4466;SDS011;2246;42.664;23.278;2024-01-15T14:20:33;54.72;;;21.42;;
4466;SDS011;2246;42.664;23.278;2024-01-15T14:22:59;52.00;;;20.98;;
4466;SDS011;2246;42.664;23.278;2024-01-15T14:25:25;44.92;;;23.15;;
4466;SDS011;2246;42.664;23.278;2024-01-15T14:27:51;54.35;;;23.02;;
4466;SDS011;2246;42.664;23.278;2024-01-15T14:30:17;60.85;;;21.52;;
4466;SDS011;2246;42.664;23.278;2024-01-15T14:32:43;63.15;;;24.48;;
4466;SDS011;2246;42.664;23.278;2024-01-15T14:35:09;61.58;;;26.30;;
4466;SDS011;2246;42.664;23.278;2024-01-15T14:37:38;60.47;;;25.25;;